Time;durP1;ratioP1;P1;durP2;ratioP2;P2;SDS_P1;SDS_P2;PMS_P1;PMS_P2;Temp;Humidity;BMP_temperature;BMP_pressure;BME280_temperature;BME280_humidity;BME280_pressure;Samples;Min_cycle;Max_cycle;Signal;HPM_P1;HPM_P2
2021/11/12 00:03:57;;;;;;;23.48;15.38;;;;;;;6.20;60.05;100733.50;4467182;32;34231;-51
2021/11/12 00:12:59;;;;;;;23.98;14.90;;;;;;;6.13;59.96;100730.69;4466908;32;34769;-50
2021/11/12 00:14:55;;;;;;;21.20;14.80;;;;;;;6.25;59.37;100722.50;4459963;32;33881;-50
2021/11/12 00:17:31;;;;;;;24.67;15.68;;;;;;;6.23;59.40;100725.84;4465874;32;32925;-49
2021/11/12 00:20:00;;;;;;;20.83;14.23;;;;;;;6.21;59.53;100727.47;4466662;32;33873;-50
2021/11/12 00:22:28;;;;;;;22.95;15.02;;;;;;;6.12;59.97;100722.91;4466835;32;35581;-50
2021/11/12 00:24:57;;;;;;;23.92;14.00;;;;;;;5.96;60.59;100725.84;4466840;32;35247;-50
2021/11/12 00:27:26;;;;;;;22.98;14.75;;;;;;;5.89;60.88;100718.72;4466432;32;33913;-50
2021/11/12 00:32:59;;;;;;;21.17;13.70;;;;;;;6.09;59.98;100713.34;4466747;32;35488;-51
2021/11/12 00:38:23;;;;;;;21.90;13.98;;;;;;;5.91;60.13;100714.47;4466759;32;33381;-49
2021/11/12 00:41:00;;;;;;;23.67;13.88;;;;;;;6.10;59.65;100714.25;4466804;32;34662;-51
2021/11/12 00:43:35;;;;;;;21.23;13.48;;;;;;;6.06;59.96;100721.00;4467035;32;35460;-49
2021/11/12 00:46:14;;;;;;;21.62;13.80;;;;;;;6.00;60.02;100713.06;4466872;32;34579;-50
2021/11/12 00:51:17;;;;;;;20.88;12.85;;;;;;;6.12;59.35;100708.28;4466457;32;33490;-51
2021/11/12 00:56:19;;;;;;;21.85;13.35;;;;;;;5.98;59.97;100713.84;4466388;32;34214;-53
2021/11/12 00:58:47;;;;;;;22.52;12.98;;;;;;;6.03;59.94;100722.63;4466216;32;33683;-49
2021/11/12 01:01:15;;;;;;;21.02;12.27;;;;;;;6.01;59.91;100719.97;4466267;32;33802;-51
2021/11/12 01:03:43;;;;;;;22.30;12.93;;;;;;;5.86;60.29;100709.16;4466312;32;34685;-50
2021/11/12 01:06:10;;;;;;;28.92;13.25;;;;;;;5.87;60.18;100705.72;4466350;32;34493;-51
2021/11/12 01:08:38;;;;;;;20.17;12.73;;;;;;;5.87;59.91;100708.31;4466436;32;33543;-50
2021/11/12 01:11:06;;;;;;;19.08;11.95;;;;;;;5.94;59.75;100707.69;4464812;32;34278;-49
2021/11/12 01:13:35;;;;;;;19.55;12.35;;;;;;;5.80;60.19;100698.59;4465924;32;34974;-50
2021/11/12 01:16:04;;;;;;;18.55;12.15;;;;;;;5.68;60.50;100705.06;4452097;32;35444;-50
2021/11/12 01:18:36;;;;;;;20.83;12.68;;;;;;;5.83;60.09;100693.53;4466148;32;33335;-50
2021/11/12 01:21:06;;;;;;;19.62;12.50;;;;;;;5.83;60.09;100698.69;4465866;32;33921;-50
2021/11/12 01:23:35;;;;;;;20.35;12.10;;;;;;;6.01;59.57;100693.28;4465873;32;34940;-50
2021/11/12 01:26:02;;;;;;;21.02;12.45;;;;;;;5.76;60.24;100703.59;4464976;32;33875;-53
2021/11/12 01:28:30;;;;;;;20.50;12.25;;;;;;;5.77;60.25;100692.47;4465738;32;34447;-53
2021/11/12 01:30:59;;;;;;;21.20;13.00;;;;;;;5.83;59.83;100693.53;4465756;32;34226;-49
2021/11/12 01:33:28;;;;;;;19.95;12.60;;;;;;;5.66;60.68;100692.09;4465557;32;36027;-53
2021/11/12 01:36:01;;;;;;;20.45;12.13;;;;;;;5.89;59.84;100688.63;4465644;32;34485;-50
2021/11/12 01:38:31;;;;;;;18.77;11.70;;;;;;;5.83;60.04;100688.37;4465768;32;33689;-49
2021/11/12 01:40:59;;;;;;;20.62;12.80;;;;;;;5.95;59.65;100683.63;4465892;32;34505;-52
2021/11/12 01:43:35;;;;;;;18.70;12.45;;;;;;;5.84;59.90;100687.59;4465987;32;34651;-50
2021/11/12 01:46:28;;;;;;;21.45;13.07;;;;;;;5.71;60.42;100682.78;4465702;32;34469;-49
2021/11/12 01:51:46;;;;;;;21.65;13.18;;;;;;;5.78;59.60;100677.00;4464614;32;33942;-50
2021/11/12 02:02:07;;;;;;;22.83;12.65;;;;;;;5.61;60.13;100683.31;4465622;32;34032;-51
2021/11/12 02:04:37;;;;;;;20.20;12.15;;;;;;;5.67;59.78;100675.78;4465101;32;34688;-50
2021/11/12 02:07:05;;;;;;;21.80;12.50;;;;;;;5.55;59.87;100680.53;4465573;32;35365;-51
2021/11/12 02:09:32;;;;;;;18.98;12.23;;;;;;;5.68;59.70;100680.09;4465366;32;34640;-50
2021/11/12 02:12:16;;;;;;;19.37;11.68;;;;;;;5.62;60.07;100679.91;4464104;32;33343;-50
2021/11/12 02:14:45;;;;;;;18.55;12.18;;;;;;;5.65;59.92;100672.28;4464014;32;35219;-49
2021/11/12 02:17:17;;;;;;;18.50;11.18;;;;;;;5.65;60.14;100667.13;4465207;32;34373;-50
2021/11/12 02:19:51;;;;;;;16.90;11.63;;;;;;;5.64;59.75;100667.06;4465574;32;34358;-49
2021/11/12 02:22:20;;;;;;;19.60;12.25;;;;;;;5.65;59.77;100666.25;4465420;32;33688;-52
2021/11/12 02:25:12;;;;;;;19.23;12.07;;;;;;;5.44;60.45;100671.56;4465247;32;34858;-49
2021/11/12 02:27:56;;;;;;;21.52;12.02;;;;;;;5.53;60.40;100676.16;4464038;32;34153;-50
2021/11/12 02:30:28;;;;;;;20.00;11.88;;;;;;;5.55;59.99;100664.19;4465012;32;34284;-51
2021/11/12 02:32:57;;;;;;;17.98;10.95;;;;;;;5.48;60.13;100668.25;4465145;32;33916;-49
2021/11/12 02:35:25;;;;;;;18.77;11.23;;;;;;;5.64;59.60;100669.62;4464884;32;34814;-49
2021/11/12 02:37:53;;;;;;;17.98;11.12;;;;;;;5.43;60.03;100670.69;4464882;32;34751;-50
2021/11/12 02:40:21;;;;;;;19.37;11.93;;;;;;;5.45;59.86;100663.00;4465118;32;34020;-49
2021/11/12 02:42:48;;;;;;;18.08;11.80;;;;;;;5.50;59.67;100661.44;4465032;32;34184;-50
2021/11/12 02:45:16;;;;;;;19.77;12.07;;;;;;;5.45;59.76;100673.31;4464831;32;36160;-49
2021/11/12 02:47:43;;;;;;;18.02;11.93;;;;;;;5.33;60.06;100678.03;4450701;32;34674;-50
2021/11/12 02:50:12;;;;;;;17.12;12.15;;;;;;;5.27;60.47;100671.00;4465219;32;33413;-56
2021/11/12 02:52:41;;;;;;;17.37;11.48;;;;;;;5.13;60.90;100664.47;4465491;32;34648;-55
2021/11/12 02:55:09;;;;;;;18.55;12.02;;;;;;;5.30;60.40;100660.75;4465539;32;35233;-51
2021/11/12 02:57:36;;;;;;;18.42;11.25;;;;;;;5.20;60.71;100665.56;4465414;32;35175;-50
2021/11/12 03:00:06;;;;;;;21.55;12.55;;;;;;;5.28;60.53;100671.84;4465499;32;34167;-51
2021/11/12 03:02:34;;;;;;;20.40;11.63;;;;;;;5.32;60.34;100669.47;4465409;32;33950;-49
2021/11/12 03:05:04;;;;;;;21.12;11.88;;;;;;;5.47;59.78;100661.34;4465293;32;34909;-52
2021/11/12 03:07:31;;;;;;;18.85;11.77;;;;;;;5.29;60.24;100659.03;4465484;32;34185;-51
2021/11/12 03:09:59;;;;;;;19.58;11.80;;;;;;;5.41;60.26;100662.03;4465294;32;33481;-49
2021/11/12 03:12:28;;;;;;;18.83;11.60;;;;;;;5.44;60.01;100656.94;4465474;32;33975;-49
2021/11/12 03:14:55;;;;;;;19.23;12.50;;;;;;;5.44;59.88;100656.09;4465451;32;35837;-50
2021/11/12 03:17:23;;;;;;;17.37;11.55;;;;;;;5.46;59.61;100659.59;4467571;32;35021;-49
2021/11/12 03:19:51;;;;;;;18.98;11.65;;;;;;;5.43;59.45;100664.66;4466815;32;33783;-49
2021/11/12 03:22:21;;;;;;;21.27;11.93;;;;;;;5.18;60.38;100662.91;4466894;32;34094;-50
2021/11/12 03:25:00;;;;;;;18.00;10.82;;;;;;;5.28;60.21;100656.38;4467230;32;34091;-50
2021/11/12 03:27:37;;;;;;;19.05;11.05;;;;;;;5.38;60.00;100653.28;4466938;32;34267;-49
2021/11/12 04:00:06;;;;;;;17.87;10.52;;;;;;;5.03;60.38;100656.34;4467070;32;35436;-54
2021/11/12 05:51:36;;;;;;;24.42;13.57;;;;;;;5.04;60.93;100658.97;4466014;32;34264;-49
2021/11/12 05:56:54;;;;;;;25.20;12.85;;;;;;;5.15;60.81;100656.78;4465885;32;34922;-50
2021/11/12 05:59:23;;;;;;;21.35;12.85;;;;;;;5.19;60.29;100659.53;4465711;32;35368;-51
2021/11/12 06:01:52;;;;;;;34.92;15.32;;;;;;;5.11;60.88;100660.09;4466121;32;34297;-50
2021/11/12 06:04:21;;;;;;;30.62;15.02;;;;;;;5.96;78.16;100664.75;4466277;32;34625;-51
2021/11/12 06:06:48;;;;;;;25.95;13.07;;;;;;;5.94;73.17;100658.63;4466496;32;34841;-50
2021/11/12 06:09:16;;;;;;;25.40;13.55;;;;;;;5.79;71.60;100662.41;4466660;32;34363;-50
2021/11/12 06:11:44;;;;;;;24.70;13.23;;;;;;;5.72;67.82;100660.44;4465360;32;33775;-48
2021/11/12 06:14:12;;;;;;;24.12;13.23;;;;;;;5.77;65.63;100657.22;4466238;32;35275;-50
2021/11/12 06:16:40;;;;;;;20.98;12.77;;;;;;;5.60;63.96;100662.62;4465806;32;34989;-50
2021/11/12 06:19:07;;;;;;;22.87;12.65;;;;;;;5.73;61.35;100655.31;4466025;32;34269;-51
2021/11/12 06:21:35;;;;;;;21.60;12.75;;;;;;;5.80;60.58;100659.00;4466167;32;33851;-50
2021/11/12 06:24:03;;;;;;;22.15;12.20;;;;;;;5.78;60.74;100652.88;4466183;32;33983;-50
2021/11/12 06:26:30;;;;;;;24.63;13.07;;;;;;;5.85;60.69;100650.59;4467166;32;34694;-52
2021/11/12 06:29:01;;;;;;;25.23;13.30;;;;;;;5.72;61.18;100652.72;4466211;32;34387;-51
2021/11/12 06:31:29;;;;;;;35.85;13.60;;;;;;;5.94;60.40;100650.03;4465496;32;33451;-52
2021/11/12 06:33:56;;;;;;;20.98;13.00;;;;;;;5.84;60.73;100654.03;4464984;32;33887;-51
2021/11/12 06:36:25;;;;;;;26.02;14.43;;;;;;;5.84;63.35;100661.78;4463579;32;35692;-52
2021/11/12 06:38:54;;;;;;;32.78;14.35;;;;;;;5.86;61.75;100662.69;4463684;32;34197;-51
2021/11/12 06:49:38;;;;;;;23.35;13.85;;;;;;;6.06;61.26;100666.75;4463094;32;35769;-53
2021/11/12 06:52:06;;;;;;;25.33;13.62;;;;;;;6.05;61.37;100659.88;4465535;32;34735;-55
2021/11/12 06:54:34;;;;;;;23.60;14.05;;;;;;;6.20;60.79;100658.59;4461653;32;34799;-56
2021/11/12 06:57:01;;;;;;;23.80;13.98;;;;;;;6.32;60.83;100664.13;4462751;32;36095;-54
2021/11/12 06:59:29;;;;;;;24.67;14.27;;;;;;;6.44;60.64;100669.66;4461223;32;34734;-55
2021/11/12 07:01:56;;;;;;;24.20;15.38;;;;;;;6.49;60.56;100668.09;4462970;32;33594;-52
2021/11/12 07:04:24;;;;;;;26.02;16.08;;;;;;;6.50;60.91;100667.25;4462750;32;34701;-56
2021/11/12 07:06:51;;;;;;;27.60;16.33;;;;;;;6.62;60.80;100672.78;4462887;32;35685;-53
2021/11/12 07:09:19;;;;;;;23.10;14.75;;;;;;;6.61;61.09;100677.06;4465247;32;34186;-55
2021/11/12 07:11:46;;;;;;;23.17;13.85;;;;;;;6.71;61.27;100670.47;4466181;32;33389;-52
2021/11/12 07:14:15;;;;;;;25.88;14.50;;;;;;;6.78;61.25;100664.63;4465749;32;33901;-51
2021/11/12 07:16:43;;;;;;;20.05;12.37;;;;;;;6.77;61.49;100670.66;4465007;32;35103;-51
2021/11/12 07:19:11;;;;;;;18.30;10.98;;;;;;;7.07;60.84;100666.31;4463852;32;35222;-53
2021/11/12 07:21:39;;;;;;;19.27;10.68;;;;;;;6.85;61.59;100668.28;4465043;32;33327;-54
2021/11/12 07:24:06;;;;;;;23.23;13.38;;;;;;;7.20;76.19;100678.75;4464998;32;34179;-54
2021/11/12 07:26:34;;;;;;;21.50;11.95;;;;;;;7.51;69.43;100670.97;4464780;32;35933;-55
2021/11/12 07:29:03;;;;;;;25.55;13.75;;;;;;;7.69;65.91;100667.97;4464565;32;34277;-54
2021/11/12 07:31:46;;;;;;;22.13;13.18;;;;;;;7.62;62.57;100667.78;4464516;32;33692;-53
2021/11/12 07:34:13;;;;;;;23.70;13.25;;;;;;;7.76;61.46;100671.59;4464477;32;33724;-50
2021/11/12 07:36:47;;;;;;;20.85;12.73;;;;;;;7.92;60.82;100676.28;4464279;32;34593;-54
2021/11/12 07:47:14;;;;;;;20.25;11.90;;;;;;;8.38;59.37;100661.00;4465811;32;34837;-50
2021/11/12 07:49:48;;;;;;;17.92;11.45;;;;;;;8.49;58.86;100671.59;4466062;32;34304;-51
2021/11/12 07:52:17;;;;;;;19.35;12.60;;;;;;;8.36;59.05;100675.66;4465251;32;33538;-50
2021/11/12 07:54:46;;;;;;;17.73;12.02;;;;;;;8.54;58.75;100672.59;4464967;32;33784;-50
2021/11/12 07:57:17;;;;;;;19.05;12.48;;;;;;;8.82;59.36;100673.19;4457665;32;35093;-52
2021/11/12 07:59:55;;;;;;;18.20;11.85;;;;;;;9.06;58.39;100682.31;4463196;32;34708;-51
2021/11/12 08:02:24;;;;;;;21.05;13.55;;;;;;;9.08;57.84;100680.66;4464082;32;33352;-51
2021/11/12 08:04:59;;;;;;;19.58;12.60;;;;;;;9.14;57.52;100680.75;4465446;32;33754;-51
2021/11/12 08:07:29;;;;;;;22.75;13.07;;;;;;;9.24;57.43;100683.56;4465352;32;35777;-50
2021/11/12 08:09:59;;;;;;;20.77;12.75;;;;;;;9.52;56.60;100677.16;4465525;32;35149;-49
2021/11/12 08:12:38;;;;;;;22.05;12.85;;;;;;;9.51;56.96;100680.59;4465481;32;35956;-50
2021/11/12 08:15:19;;;;;;;21.05;13.02;;;;;;;9.65;56.75;100676.50;4465421;32;34347;-49
2021/11/12 08:18:03;;;;;;;20.08;12.75;;;;;;;9.72;56.47;100674.91;4466693;32;36209;-49
2021/11/12 08:20:39;;;;;;;19.70;12.73;;;;;;;9.87;56.00;100680.34;4466116;32;35018;-53
2021/11/12 08:23:43;;;;;;;20.95;13.27;;;;;;;10.07;57.11;100679.84;4467465;32;33689;-50
2021/11/12 08:26:33;;;;;;;22.58;13.98;;;;;;;9.98;55.72;100682.25;4465356;32;34036;-49
2021/11/12 08:29:27;;;;;;;22.42;14.07;;;;;;;10.09;54.98;100683.31;4465458;32;35288;-52
2021/11/12 08:34:50;;;;;;;22.58;14.27;;;;;;;10.23;55.42;100680.97;4465569;32;34517;-51
2021/11/12 08:42:46;;;;;;;26.05;15.43;;;;;;;10.47;54.37;100683.03;4468211;32;35021;-51
2021/11/12 08:45:22;;;;;;;20.33;13.07;;;;;;;10.58;54.39;100684.06;4468168;32;33929;-50
2021/11/12 08:48:03;;;;;;;24.95;14.15;;;;;;;10.92;53.40;100683.66;4467837;32;33965;-49
2021/11/12 08:50:32;;;;;;;23.62;13.80;;;;;;;10.86;55.45;100681.00;4466890;32;35888;-51
2021/11/12 08:53:11;;;;;;;23.15;13.95;;;;;;;10.87;54.23;100674.91;4467218;32;34351;-51
2021/11/12 08:55:40;;;;;;;21.48;14.52;;;;;;;10.81;54.31;100672.25;4465888;32;33390;-50
2021/11/12 08:58:11;;;;;;;23.60;14.07;;;;;;;11.15;53.46;100669.16;4466507;32;34308;-53
2021/11/12 09:00:41;;;;;;;21.67;13.90;;;;;;;10.99;59.38;100676.78;4465567;32;35203;-50
2021/11/12 09:03:10;;;;;;;28.42;17.05;;;;;;;11.16;55.30;100673.53;4465714;32;35231;-53
2021/11/12 09:05:38;;;;;;;27.50;15.05;;;;;;;11.28;53.76;100671.06;4466136;32;33557;-53
2021/11/12 09:08:05;;;;;;;26.65;15.38;;;;;;;11.30;53.74;100671.06;4466290;32;34262;-54
2021/11/12 09:10:33;;;;;;;22.65;14.60;;;;;;;11.47;52.74;100667.78;4466072;32;34606;-55
2021/11/12 09:13:19;;;;;;;26.58;16.02;;;;;;;11.60;52.56;100662.69;4463623;32;34726;-54
2021/11/12 09:15:55;;;;;;;23.52;15.32;;;;;;;11.45;53.06;100663.41;4466416;32;34244;-53
2021/11/12 09:18:23;;;;;;;24.17;15.65;;;;;;;11.39;53.56;100664.22;4465616;32;36378;-54
2021/11/12 09:20:52;;;;;;;28.23;16.48;;;;;;;11.55;53.19;100663.50;4465873;32;34919;-54
2021/11/12 09:23:20;;;;;;;27.05;16.17;;;;;;;11.62;52.85;100655.75;4466028;32;34217;-51
2021/11/12 09:25:47;;;;;;;24.15;16.20;;;;;;;11.66;52.75;100647.09;4465445;32;34229;-54
2021/11/12 09:28:15;;;;;;;27.50;16.98;;;;;;;11.71;52.56;100650.66;4465481;32;34734;-56
2021/11/12 09:30:43;;;;;;;25.77;16.73;;;;;;;11.69;52.43;100641.97;4465432;32;35154;-55
2021/11/12 09:33:10;;;;;;;26.80;17.10;;;;;;;11.85;51.94;100639.50;4465914;32;34832;-49
2021/11/12 09:35:38;;;;;;;25.33;16.08;;;;;;;11.75;52.61;100644.59;4465689;32;33790;-49
2021/11/12 09:38:06;;;;;;;24.30;16.30;;;;;;;11.80;52.81;100629.87;4465562;32;34729;-49
2021/11/12 09:40:34;;;;;;;24.77;16.15;;;;;;;11.75;52.78;100631.56;4465769;32;34680;-49
2021/11/12 09:43:01;;;;;;;27.25;16.77;;;;;;;11.72;52.72;100626.38;4464762;32;34269;-51
2021/11/12 09:45:30;;;;;;;27.37;17.25;;;;;;;11.81;52.79;100626.44;4466572;32;33523;-53
2021/11/12 09:47:58;;;;;;;25.35;16.50;;;;;;;11.95;54.50;100627.41;4466169;32;33671;-50
2021/11/12 09:50:29;;;;;;;24.50;17.05;;;;;;;12.06;54.13;100625.72;4465768;32;35819;-52
2021/11/12 09:52:58;;;;;;;27.52;17.20;;;;;;;12.14;52.25;100618.84;4466518;32;34239;-51
2021/11/12 09:55:29;;;;;;;27.00;15.93;;;;;;;11.95;52.95;100620.47;4465862;32;33428;-50
2021/11/12 09:58:00;;;;;;;25.02;15.68;;;;;;;12.04;55.47;100619.66;4465565;32;34778;-50
2021/11/12 10:00:29;;;;;;;24.17;15.10;;;;;;;12.37;54.07;100609.41;4465572;32;34773;-50
2021/11/12 10:02:58;;;;;;;24.48;16.05;;;;;;;12.53;52.06;100608.62;4465295;32;34679;-52
2021/11/12 10:05:42;;;;;;;25.98;16.02;;;;;;;12.34;51.80;100612.00;4465379;32;34172;-50
2021/11/12 10:08:28;;;;;;;24.35;14.65;;;;;;;12.26;51.76;100597.19;4465499;32;33990;-49
2021/11/12 10:11:00;;;;;;;26.42;14.90;;;;;;;12.37;51.29;100590.28;4464202;32;34713;-49
2021/11/12 10:13:36;;;;;;;21.62;14.15;;;;;;;12.48;50.79;100592.06;4465296;32;34338;-50
2021/11/12 10:16:24;;;;;;;20.37;14.25;;;;;;;12.60;50.78;100592.13;4465797;32;34195;-51
2021/11/12 10:19:02;;;;;;;22.35;13.70;;;;;;;12.52;50.79;100585.13;4465753;32;33960;-49
2021/11/12 10:21:34;;;;;;;21.48;13.90;;;;;;;12.51;50.43;100576.44;4465285;32;35517;-49
2021/11/12 10:24:07;;;;;;;20.80;13.82;;;;;;;12.41;51.11;100565.97;4465091;32;35209;-49
2021/11/12 10:26:36;;;;;;;21.30;14.10;;;;;;;12.37;51.07;100565.06;4463816;32;34585;-48
2021/11/12 10:29:08;;;;;;;19.30;13.07;;;;;;;12.61;50.34;100557.34;4465215;32;33854;-53
2021/11/12 10:31:48;;;;;;;17.80;12.40;;;;;;;12.62;50.40;100558.22;4465469;32;35794;-50
2021/11/12 10:34:23;;;;;;;18.92;12.73;;;;;;;12.45;50.60;100566.00;4465662;32;34500;-51
2021/11/12 10:37:19;;;;;;;17.65;12.25;;;;;;;12.63;50.36;100554.72;4464845;32;33420;-50
2021/11/12 10:39:50;;;;;;;16.85;12.32;;;;;;;12.75;49.73;100545.22;4464988;32;33963;-49
2021/11/12 10:42:23;;;;;;;17.20;12.23;;;;;;;12.67;49.78;100549.53;4464351;32;35138;-55
2021/11/12 10:44:53;;;;;;;21.35;13.18;;;;;;;12.73;49.68;100548.69;4464962;32;35056;-50
2021/11/12 10:47:21;;;;;;;22.30;12.80;;;;;;;12.74;49.80;100543.44;4464609;32;33417;-55
2021/11/12 10:49:56;;;;;;;17.73;11.35;;;;;;;12.96;48.96;100547.00;4463776;32;34796;-54
2021/11/12 10:52:26;;;;;;;18.37;11.50;;;;;;;12.70;49.41;100540.84;4465000;32;35345;-55
2021/11/12 10:55:03;;;;;;;16.62;11.77;;;;;;;12.69;49.53;100537.34;4464688;32;34743;-55
2021/11/12 10:57:33;;;;;;;22.25;12.77;;;;;;;12.85;49.02;100530.44;4465016;32;32916;-54
2021/11/12 11:00:12;;;;;;;18.83;11.95;;;;;;;12.95;48.86;100528.72;4464992;32;35378;-55
2021/11/12 11:02:41;;;;;;;21.95;13.35;;;;;;;13.16;49.90;100526.16;4464756;32;35320;-53
2021/11/12 11:05:13;;;;;;;20.60;12.48;;;;;;;13.16;48.46;100523.56;4464638;32;35110;-55
2021/11/12 11:07:41;;;;;;;21.15;13.18;;;;;;;13.26;47.96;100522.69;4464290;32;33424;-56
2021/11/12 11:10:28;;;;;;;20.08;13.27;;;;;;;13.28;48.00;100520.94;4464448;32;34410;-55
2021/11/12 11:13:11;;;;;;;19.58;13.13;;;;;;;13.43;47.59;100521.81;4463983;32;35749;-54
2021/11/12 11:15:42;;;;;;;19.15;12.23;;;;;;;13.53;47.49;100514.84;4464129;32;34728;-55
2021/11/12 11:21:44;;;;;;;18.50;11.68;;;;;;;13.45;47.15;100514.00;4463937;32;33899;-55
2021/11/12 11:24:04;;;;;;;15.70;11.15;;;;;;;13.35;47.74;100512.25;4452375;32;35669;-52
2021/11/12 11:26:37;;;;;;;17.58;11.70;;;;;;;13.47;46.64;100513.12;4463956;32;34176;-53
2021/11/12 11:29:07;;;;;;;17.17;12.60;;;;;;;13.38;46.69;100505.25;4463899;32;33995;-53
2021/11/12 11:31:34;;;;;;;19.65;13.18;;;;;;;13.43;46.20;100497.44;4463863;32;34926;-56
2021/11/12 11:34:03;;;;;;;21.23;13.18;;;;;;;13.63;45.94;100498.28;4463828;32;35951;-55
2021/11/12 11:36:33;;;;;;;18.50;12.30;;;;;;;13.49;46.51;100500.03;4465035;32;34458;-50
2021/11/12 11:39:05;;;;;;;18.45;12.50;;;;;;;13.57;46.06;100488.69;4464539;32;34503;-53
2021/11/12 11:41:33;;;;;;;18.52;12.70;;;;;;;13.58;45.94;100492.19;4466151;32;34769;-55
2021/11/12 11:44:01;;;;;;;21.08;12.37;;;;;;;13.44;46.60;100488.72;4465888;32;35052;-50
2021/11/12 11:46:31;;;;;;;20.35;12.50;;;;;;;13.65;45.76;100477.34;4465617;32;35412;-50
2021/11/12 11:49:00;;;;;;;20.30;11.68;;;;;;;13.39;46.64;100472.16;4465034;32;34637;-53
2021/11/12 11:51:31;;;;;;;21.33;11.95;;;;;;;13.58;45.38;100476.50;4465941;32;35166;-50
2021/11/12 11:54:09;;;;;;;19.53;12.47;;;;;;;13.35;46.06;100473.06;4466001;32;35912;-51
2021/11/12 11:56:46;;;;;;;15.88;11.35;;;;;;;13.30;46.35;100469.56;4462925;32;95037;-54
2021/11/12 11:59:25;;;;;;;18.58;10.95;;;;;;;13.51;44.93;100465.19;4466039;32;33750;-55
2021/11/12 12:02:03;;;;;;;16.95;11.25;;;;;;;13.36;44.95;100466.97;4466098;32;33601;-51
2021/11/12 12:04:49;;;;;;;20.00;11.68;;;;;;;13.47;45.15;100454.75;4467255;32;34726;-50
2021/11/12 12:07:22;;;;;;;18.05;11.02;;;;;;;13.53;44.98;100457.34;4465976;32;35248;-49
2021/11/12 12:10:16;;;;;;;16.55;11.12;;;;;;;13.51;44.73;100454.75;4464816;32;33443;-50
2021/11/12 12:12:47;;;;;;;17.55;11.25;;;;;;;13.58;44.70;100459.09;4465787;32;34594;-50
2021/11/12 12:15:17;;;;;;;17.77;11.27;;;;;;;13.61;44.91;100457.31;4465858;32;35488;-50
2021/11/12 12:17:47;;;;;;;19.60;10.80;;;;;;;13.65;43.76;100454.72;4465635;32;35531;-50
2021/11/12 12:20:39;;;;;;;15.25;11.00;;;;;;;13.53;44.05;100450.37;4465724;32;34952;-53
2021/11/12 13:18:17;;;;;;;14.70;9.98;;;;;;;13.70;42.72;100429.44;4466760;32;34194;-55
2021/11/12 13:26:01;;;;;;;15.90;9.77;;;;;;;14.17;40.66;100396.09;4467233;32;34939;-48
2021/11/12 13:28:31;;;;;;;15.27;9.25;;;;;;;14.16;40.69;100404.84;4468386;32;33576;-52
2021/11/12 13:31:09;;;;;;;14.38;9.98;;;;;;;14.37;40.53;100401.25;4467871;32;33797;-49
2021/11/12 13:33:59;;;;;;;16.90;10.65;;;;;;;14.11;41.39;100409.22;4467725;32;35349;-51
2021/11/12 13:36:35;;;;;;;13.75;9.15;;;;;;;14.07;41.56;100410.09;4468000;32;35089;-48
2021/11/12 13:39:07;;;;;;;15.90;8.90;;;;;;;14.20;40.31;100411.78;4466081;32;33899;-48
2021/11/12 13:41:38;;;;;;;16.20;9.48;;;;;;;14.24;39.05;100394.31;4465849;32;33789;-48
2021/11/12 13:44:09;;;;;;;13.50;10.00;;;;;;;14.14;39.43;100398.72;4465492;32;34189;-48
2021/11/12 13:46:49;;;;;;;15.82;10.15;;;;;;;14.07;41.20;100402.25;4465926;32;35181;-50
2021/11/12 13:49:38;;;;;;;14.68;8.82;;;;;;;14.14;40.11;100403.13;4465107;32;33735;-51
2021/11/12 13:52:22;;;;;;;13.45;7.53;;;;;;;14.23;38.94;100397.81;4464589;32;34052;-49
2021/11/12 13:54:53;;;;;;;15.52;8.90;;;;;;;14.14;38.35;100390.88;4465645;32;35457;-52
2021/11/12 13:57:23;;;;;;;14.23;8.63;;;;;;;14.01;38.48;100386.59;4464967;32;34324;-51
2021/11/12 14:00:06;;;;;;;12.88;8.57;;;;;;;14.19;37.89;100389.13;4464265;32;34451;-54
2021/11/12 14:03:19;;;;;;;15.73;9.73;;;;;;;14.27;37.34;100378.59;4465551;32;34142;-49
2021/11/12 14:05:59;;;;;;;18.80;10.48;;;;;;;14.05;37.88;100393.53;4463568;32;35269;-49
2021/11/12 14:08:34;;;;;;;45.47;25.92;;;;;;;14.08;39.38;100379.59;4465449;32;35225;-49
2021/11/12 14:11:04;;;;;;;49.60;29.08;;;;;;;14.25;38.27;100380.38;4463704;32;33508;-51
2021/11/12 14:13:40;;;;;;;40.90;26.02;;;;;;;14.19;38.55;100386.50;4463798;32;33672;-49
2021/11/12 14:21:33;;;;;;;19.98;13.23;;;;;;;14.02;39.14;100388.34;4462647;32;33776;-49
2021/11/12 14:40:46;;;;;;;18.77;11.52;;;;;;;13.82;42.19;100374.47;4463973;32;34575;-51
2021/11/12 14:43:22;;;;;;;17.27;10.73;;;;;;;13.77;42.66;100368.41;4465079;32;34514;-55
2021/11/12 14:46:12;;;;;;;22.27;11.27;;;;;;;13.63;43.10;100370.19;4465443;32;33851;-53
2021/11/12 14:48:55;;;;;;;15.32;10.18;;;;;;;13.54;43.56;100373.72;4465236;32;34822;-53
2021/11/12 14:51:43;;;;;;;20.80;12.18;;;;;;;13.67;43.85;100377.16;4465118;32;35451;-53
2021/11/12 14:54:13;;;;;;;22.33;12.32;;;;;;;13.63;44.75;100366.72;4451678;32;33699;-51
2021/11/12 14:56:49;;;;;;;22.17;12.37;;;;;;;13.38;45.16;100369.41;4465311;32;34760;-53
2021/11/12 14:59:18;;;;;;;19.15;11.63;;;;;;;13.31;45.24;100374.66;4464331;32;35765;-53
2021/11/12 15:01:46;;;;;;;23.35;11.50;;;;;;;13.10;46.20;100378.16;4465314;32;34826;-50
2021/11/12 15:04:16;;;;;;;19.17;11.32;;;;;;;13.09;46.35;100383.41;4465459;32;33408;-51
2021/11/12 15:06:45;;;;;;;22.27;12.18;;;;;;;12.80;47.18;100384.25;4465155;32;34289;-52
2021/11/12 15:09:26;;;;;;;34.70;12.32;;;;;;;12.78;46.85;100380.78;4465090;32;35816;-50
2021/11/12 15:11:54;;;;;;;20.15;12.00;;;;;;;12.66;47.02;100375.56;4466773;32;34722;-52
2021/11/12 15:14:34;;;;;;;19.37;12.55;;;;;;;12.59;47.25;100371.19;4465499;32;33694;-51
2021/11/12 15:17:06;;;;;;;24.02;13.00;;;;;;;12.19;48.12;100364.19;4466371;32;33949;-52
2021/11/12 15:19:37;;;;;;;23.52;14.93;;;;;;;12.16;48.24;100375.47;4466368;32;34950;-49
2021/11/12 15:27:44;;;;;;;26.00;15.70;;;;;;;11.86;49.20;100375.34;4466087;32;33564;-50
2021/11/12 15:30:20;;;;;;;26.00;14.68;;;;;;;11.64;49.55;100375.25;4466081;32;35628;-49
2021/11/12 15:32:51;;;;;;;22.10;14.50;;;;;;;11.58;49.65;100389.09;4465029;32;35104;-50
2021/11/12 15:35:23;;;;;;;27.00;16.17;;;;;;;11.48;49.90;100384.75;4466017;32;34788;-49
2021/11/12 15:43:14;;;;;;;34.60;20.23;;;;;;;11.35;50.31;100388.12;4466076;32;35289;-49
2021/11/12 15:48:15;;;;;;;31.90;18.52;;;;;;;11.09;50.74;100392.28;4466202;32;34929;-49
2021/11/12 15:56:16;;;;;;;65.75;22.98;;;;;;;10.87;51.78;100396.44;4467429;32;34565;-50
2021/11/12 15:58:52;;;;;;;40.08;23.83;;;;;;;10.80;55.05;100399.87;4467441;32;34741;-53
2021/11/12 16:05:26;;;;;;;59.92;35.45;;;;;;;10.94;53.03;100407.78;4469048;32;35175;-57
2021/11/12 16:12:22;;;;;;;51.40;30.08;;;;;;;10.89;51.20;100412.94;4469095;32;34639;-53
2021/11/12 16:22:40;;;;;;;56.10;31.77;;;;;;;10.47;51.73;100415.16;4468449;32;35791;-56
2021/11/12 16:25:14;;;;;;;54.90;31.15;;;;;;;10.37;51.91;100418.53;4469271;32;35111;-56
2021/11/12 16:28:19;;;;;;;51.40;30.30;;;;;;;10.22;52.39;100411.47;4467816;32;34216;-57
2021/11/12 16:30:38;;;;;;;57.90;31.98;;;;;;;10.26;52.28;100420.16;4467324;32;33629;-54
2021/11/12 16:33:07;;;;;;;62.60;34.80;;;;;;;10.35;52.20;100415.03;4467571;32;34958;-54
2021/11/12 16:35:37;;;;;;;63.78;35.35;;;;;;;10.09;52.56;100410.41;4467493;32;34480;-52
2021/11/12 16:38:21;;;;;;;64.15;35.10;;;;;;;10.04;52.69;100414.69;4466875;32;33585;-55
2021/11/12 16:40:55;;;;;;;55.83;31.77;;;;;;;10.08;52.67;100421.66;4468561;32;34324;-51
2021/11/12 16:43:42;;;;;;;51.13;29.77;;;;;;;9.97;52.76;100410.25;4467309;32;35411;-51
2021/11/12 16:46:28;;;;;;;55.65;32.38;;;;;;;9.87;52.96;100413.59;4468529;32;34239;-52
2021/11/12 16:54:19;;;;;;;65.28;33.95;;;;;;;9.62;53.50;100426.25;4468246;32;35066;-53
2021/11/12 17:02:05;;;;;;;75.55;38.80;;;;;;;9.66;53.44;100423.72;4467312;32;34049;-54
2021/11/12 17:12:45;;;;;;;77.93;37.03;;;;;;;9.37;53.74;100433.69;4467114;32;34063;-51
2021/11/12 17:48:09;;;;;;;36.10;22.33;;;;;;;8.58;54.91;100417.72;4451734;32;34749;-51